createdAt,value
2019-02-25T00:04:47.181Z,4.5
2019-02-25T00:09:52.253Z,4.5
2019-02-25T00:14:57.706Z,4.5
2019-02-25T00:20:02.925Z,4.3
2019-02-25T00:25:08.230Z,4.8
2019-02-25T00:30:13.576Z,4.5
2019-02-25T00:35:18.687Z,4.3
2019-02-25T00:40:23.847Z,4.3
2019-02-25T00:45:31.261Z,4.2
2019-02-25T00:50:36.415Z,4.4
2019-02-25T00:55:41.937Z,4.1
2019-02-25T01:00:47.191Z,4.1
2019-02-25T01:05:52.321Z,4.3
2019-02-25T01:10:57.536Z,4.2
2019-02-25T01:16:03.356Z,4.2
2019-02-25T01:21:08.280Z,3.9
2019-02-25T01:26:14.005Z,4
2019-02-25T01:31:19.464Z,3.8
2019-02-25T01:36:25.092Z,4
2019-02-25T01:41:30.449Z,4.2
2019-02-25T01:46:34.594Z,4
2019-02-25T01:51:39.957Z,3.9
2019-02-25T01:56:45.270Z,4.1
2019-02-25T02:01:50.687Z,3.9
2019-02-25T02:06:56.656Z,4.2
2019-02-25T02:11:59.132Z,4.2
2019-02-25T02:17:04.651Z,4
2019-02-25T02:22:09.828Z,4.2
2019-02-25T02:27:15.364Z,3.9
2019-02-25T02:32:19.000Z,4.1
2019-02-25T02:37:22.821Z,4
2019-02-25T02:42:28.371Z,3.9
2019-02-25T02:47:33.617Z,4
2019-02-25T02:52:39.011Z,4
2019-02-25T02:57:44.137Z,3.9
2019-02-25T03:02:49.494Z,4
2019-02-25T03:07:54.867Z,4.1
2019-02-25T03:13:00.284Z,4.2
2019-02-25T03:18:04.131Z,3.9
2019-02-25T03:23:09.565Z,3.8
2019-02-25T03:28:15.018Z,3.7
2019-02-25T03:33:18.914Z,4.1
2019-02-25T03:38:24.483Z,4.1
2019-02-25T03:43:29.736Z,3.7
2019-02-25T03:48:33.533Z,3.9
2019-02-25T03:53:38.620Z,3.6
2019-02-25T03:58:43.651Z,3.6
2019-02-25T04:03:48.773Z,3.8
2019-02-25T04:08:53.949Z,3.7
2019-02-25T04:13:59.334Z,3.7
2019-02-25T04:19:05.004Z,3.6
2019-02-25T04:24:10.137Z,3.5
2019-02-25T04:29:15.451Z,3.5
2019-02-25T04:34:20.474Z,3.4
2019-02-25T04:39:25.818Z,3.7
2019-02-25T04:44:30.900Z,3.4
2019-02-25T04:49:34.840Z,3.5
2019-02-25T04:54:40.101Z,3.2
2019-02-25T04:59:45.431Z,3.4
2019-02-25T05:04:50.789Z,3.7
2019-02-25T05:09:55.996Z,3.5
2019-02-25T05:15:01.279Z,3.5
2019-02-25T05:20:07.692Z,3.7
2019-02-25T05:25:12.881Z,4
2019-02-25T05:30:18.027Z,3.8
2019-02-25T05:35:23.019Z,3.8
2019-02-25T05:40:28.108Z,4
2019-02-25T05:45:33.704Z,3.9
2019-02-25T05:50:39.238Z,4.4
2019-02-25T05:55:44.258Z,4.8
2019-02-25T06:00:49.481Z,5.3
2019-02-25T06:05:54.836Z,6.6
2019-02-25T06:11:00.428Z,6.2
2019-02-25T06:16:03.989Z,6.5
2019-02-25T06:21:09.299Z,6.2
2019-02-25T06:26:14.739Z,5.9
2019-02-25T06:31:20.224Z,5.9
2019-02-25T06:36:25.482Z,5.7
2019-02-25T06:41:29.157Z,5.6
2019-02-25T06:46:34.358Z,5.1
2019-02-25T06:51:39.731Z,5.8
2019-02-25T06:56:51.505Z,5.7
2019-02-25T07:01:46.544Z,5.8
2019-02-25T07:06:51.539Z,5.5
2019-02-25T07:11:56.711Z,5.6
2019-02-25T07:17:01.756Z,5.4
2019-02-25T07:22:07.179Z,18.8
2019-02-25T07:27:12.268Z,11.6
2019-02-25T07:32:17.713Z,9.5
2019-02-25T07:37:23.246Z,9.1
2019-02-25T07:42:28.778Z,7.4
2019-02-25T07:47:33.992Z,7.4
2019-02-25T07:52:39.217Z,7.2
2019-02-25T07:57:44.492Z,7.1
2019-02-25T08:02:50.179Z,6.5
2019-02-25T08:07:53.850Z,6.2
2019-02-25T08:12:59.182Z,6
2019-02-25T08:18:03.167Z,5.1
2019-02-25T08:23:08.649Z,5.5
2019-02-25T08:28:13.740Z,5.2
2019-02-25T08:33:19.164Z,5.1
2019-02-25T08:38:24.738Z,5.2
2019-02-25T08:43:30.003Z,4.8
2019-02-25T08:48:35.674Z,6.7
2019-02-25T08:53:42.932Z,5.1
2019-02-25T08:58:48.846Z,5.6
2019-02-25T09:03:53.104Z,4.5
2019-02-25T09:08:58.646Z,4.8
2019-02-25T09:14:01.240Z,4.7
2019-02-25T09:19:06.794Z,4.9
2019-02-25T09:24:12.281Z,4.4
2019-02-25T09:29:17.571Z,4.3
2019-02-25T09:34:21.256Z,4.1
2019-02-25T09:39:25.087Z,4.6
2019-02-25T09:44:30.269Z,4
2019-02-25T09:49:35.440Z,3.9
2019-02-25T09:54:40.775Z,3.9
2019-02-25T09:59:46.018Z,4.3
2019-02-25T10:04:51.442Z,3.7
2019-02-25T10:09:55.599Z,3.8
2019-02-25T10:15:01.241Z,3.9
2019-02-25T10:20:09.062Z,4.6
2019-02-25T10:25:14.397Z,4.2
2019-02-25T10:30:20.251Z,3.9
2019-02-25T10:35:27.172Z,4.3
2019-02-25T10:40:32.593Z,4.3
2019-02-25T10:45:41.144Z,4.5
2019-02-25T10:50:41.728Z,5.3
2019-02-25T10:55:50.786Z,5.8
2019-02-25T11:00:47.650Z,11.3
2019-02-25T11:05:56.289Z,8.9
2019-02-25T11:10:56.470Z,14.1
2019-02-25T11:16:01.596Z,14.7
2019-02-25T11:21:10.623Z,13.5
2019-02-25T11:26:16.348Z,12.4
2019-02-25T11:31:27.237Z,11.5
2019-02-25T11:36:25.537Z,10.9
2019-02-25T11:41:34.224Z,10.5
2019-02-25T11:46:35.589Z,12.2
2019-02-25T11:51:39.512Z,12
2019-02-25T11:56:44.748Z,11.2
2019-02-25T12:01:49.889Z,9.9
2019-02-25T12:06:55.188Z,10.2
2019-02-25T12:11:59.180Z,10.1
2019-02-25T12:17:06.369Z,9.9
2019-02-25T12:22:12.132Z,9.3
2019-02-25T12:27:17.185Z,9.1
2019-02-25T12:32:22.461Z,9.5
2019-02-25T12:37:28.171Z,8.9
2019-02-25T12:42:33.309Z,9
2019-02-25T12:47:38.777Z,8.9
2019-02-25T12:52:44.100Z,8.6
2019-02-25T12:57:50.672Z,8.4
2019-02-25T13:02:55.112Z,8.5
2019-02-25T13:08:00.413Z,8.4
2019-02-25T13:13:05.802Z,8
2019-02-25T13:18:11.661Z,8
2019-02-25T13:23:17.004Z,8.2
2019-02-25T13:28:30.667Z,7.8
2019-02-25T13:33:28.127Z,8
2019-02-25T13:38:33.963Z,8.1
2019-02-25T13:43:39.196Z,7.7
2019-02-25T13:48:45.554Z,7.7
2019-02-25T13:53:51.214Z,7.2
2019-02-25T13:58:57.283Z,7.3
2019-02-25T14:04:04.126Z,7.3
2019-02-25T14:09:09.500Z,7.1
2019-02-25T14:14:15.625Z,7.6
2019-02-25T14:19:21.748Z,7.2
2019-02-25T14:24:27.235Z,7.3
2019-02-25T14:29:34.009Z,7.4
2019-02-25T14:34:39.609Z,9.3
2019-02-25T14:39:53.675Z,10.2
2019-02-25T14:44:49.917Z,9.8
2019-02-25T14:49:54.505Z,11.9
2019-02-25T14:55:04.080Z,13.8
2019-02-25T15:00:07.689Z,12.6
2019-02-25T15:05:15.163Z,12.3
2019-02-25T15:10:15.608Z,11.3
2019-02-25T15:15:20.839Z,10.8
2019-02-25T15:20:29.654Z,10.9
2019-02-25T15:25:33.850Z,10.5
2019-02-25T15:30:31.666Z,10.1
2019-02-25T15:35:41.497Z,9.8
2019-02-25T15:40:38.937Z,9.8
2019-02-25T15:45:44.704Z,10.2
2019-02-25T15:50:52.935Z,10
2019-02-25T15:55:56.881Z,9.4
2019-02-25T16:00:57.415Z,9.7
2019-02-25T16:06:07.919Z,9.9
2019-02-25T16:11:05.843Z,9.6
2019-02-25T16:16:11.214Z,9.6
2019-02-25T16:21:17.335Z,9.6
2019-02-25T16:26:22.479Z,9.9
2019-02-25T16:31:30.892Z,9.9
2019-02-25T16:36:33.107Z,10
2019-02-25T16:41:43.427Z,9.6
2019-02-25T16:46:46.207Z,8.8
2019-02-25T16:51:45.583Z,8.1
2019-02-25T16:56:51.044Z,8.2
2019-02-25T17:02:02.248Z,6.7
2019-02-25T17:07:01.071Z,7
2019-02-25T17:12:09.288Z,7.1
2019-02-25T17:17:14.826Z,7.4
2019-02-25T17:22:20.275Z,7.2
2019-02-25T17:27:25.745Z,6.7
2019-02-25T17:32:31.307Z,6.5
2019-02-25T17:37:40.211Z,6
2019-02-25T17:42:49.415Z,6.4
2019-02-25T17:48:02.983Z,6.7
2019-02-25T17:52:54.954Z,7.6
2019-02-25T17:58:02.761Z,7.9
2019-02-25T18:03:08.729Z,7.8
2019-02-25T18:08:15.936Z,7.8
2019-02-25T18:13:25.845Z,8.1
2019-02-25T18:18:27.601Z,7.4
2019-02-25T18:23:37.080Z,7.6
2019-02-25T18:28:45.861Z,7.4
2019-02-25T18:33:48.521Z,7.4
2019-02-25T18:38:50.188Z,7.2
2019-02-25T18:43:51.036Z,7.3
2019-02-25T18:48:51.285Z,7.4
2019-02-25T18:54:01.853Z,7.2
2019-02-25T18:59:13.590Z,7.2
2019-02-25T19:04:04.170Z,7.4
2019-02-25T19:09:08.144Z,7
2019-02-25T19:14:21.634Z,6.7
2019-02-25T19:19:24.240Z,7.3
2019-02-25T19:24:33.201Z,26.6
2019-02-25T19:29:37.557Z,14.5
2019-02-25T19:34:43.223Z,7
2019-02-25T19:39:51.442Z,3.7
2019-02-25T19:45:01.466Z,4
2019-02-25T19:50:09.265Z,3.4
2019-02-25T19:55:10.513Z,2.8
2019-02-25T20:00:09.609Z,2.1
2019-02-25T20:05:19.062Z,1.8
2019-02-25T20:10:19.688Z,2.2
2019-02-25T20:15:25.967Z,2.1
2019-02-25T20:20:34.481Z,1.8
2019-02-25T20:25:37.028Z,1.6
2019-02-25T20:30:49.357Z,1.4
2019-02-25T20:35:53.430Z,1.3
2019-02-25T20:41:00.018Z,1.3
2019-02-25T20:46:08.623Z,1.1
2019-02-25T20:51:14.272Z,1
2019-02-25T20:56:19.767Z,0.9
2019-02-25T21:01:21.730Z,1
2019-02-25T21:06:25.590Z,1
2019-02-25T21:11:29.373Z,0.8
2019-02-25T21:16:35.483Z,0.9
2019-02-25T21:21:40.901Z,0.7
2019-02-25T21:26:46.262Z,1
2019-02-25T21:31:54.145Z,2.2
2019-02-25T21:36:56.251Z,3.2
2019-02-25T21:41:56.961Z,2.8
2019-02-25T21:47:06.294Z,2.9
2019-02-25T21:52:15.298Z,2.9
2019-02-25T21:57:13.873Z,3
2019-02-25T22:02:20.207Z,3.2
2019-02-25T22:07:29.316Z,3
2019-02-25T22:12:33.063Z,3
2019-02-25T22:17:32.472Z,3.3
2019-02-25T22:22:38.484Z,3.2
2019-02-25T22:27:46.025Z,3.5
2019-02-25T22:32:51.450Z,4.2
2019-02-25T22:38:00.394Z,4.7
2019-02-25T22:43:00.074Z,4.6
2019-02-25T22:48:05.333Z,5.3
2019-02-25T22:53:12.209Z,5.6
2019-02-25T22:58:18.114Z,5.4
2019-02-25T23:03:27.580Z,5.7
2019-02-25T23:08:33.282Z,5.9
2019-02-25T23:13:37.028Z,6
2019-02-25T23:18:43.439Z,6.1
2019-02-25T23:23:55.381Z,6.1
2019-02-25T23:28:59.801Z,6.4
2019-02-25T23:34:10.259Z,6.6
2019-02-25T23:39:12.248Z,6.4
2019-02-25T23:44:24.876Z,6.5
2019-02-25T23:49:30.319Z,6.6
2019-02-25T23:54:35.451Z,6.7
2019-02-25T23:59:44.357Z,6.5
